createdAt,value
2017-11-08T00:01:52.804Z,21.9
2017-11-08T00:03:52.990Z,21.9
2017-11-08T00:05:53.115Z,21.299999999999997
2017-11-08T00:07:53.150Z,21.9
2017-11-08T00:09:53.278Z,21.9
2017-11-08T00:11:53.395Z,21.9
2017-11-08T00:13:53.541Z,21.9
2017-11-08T00:15:53.680Z,21.9
2017-11-08T00:17:53.896Z,22.4
2017-11-08T00:19:53.992Z,21.9
2017-11-08T00:21:54.046Z,22.4
2017-11-08T00:23:54.391Z,22.9
2017-11-08T00:25:54.446Z,22.9
2017-11-08T00:27:54.528Z,22.4
2017-11-08T00:29:54.727Z,22.9
2017-11-08T00:31:54.772Z,21.9
2017-11-08T00:33:55.003Z,22.9
2017-11-08T00:35:55.028Z,22.9
2017-11-08T00:37:55.192Z,22.4
2017-11-08T00:39:55.315Z,21.9
2017-11-08T00:41:55.403Z,22.9
2017-11-08T00:43:55.526Z,22.4
2017-11-08T00:45:55.676Z,22.9
2017-11-08T00:47:55.803Z,22.4
2017-11-08T00:49:55.943Z,22.9
2017-11-08T00:51:56.046Z,22.9
2017-11-08T00:53:56.191Z,22.4
2017-11-08T00:55:56.321Z,22.4
2017-11-08T00:57:56.449Z,22.4
2017-11-08T00:59:56.608Z,21.9
2017-11-08T01:01:56.721Z,22.4
2017-11-08T01:03:56.826Z,22.4
2017-11-08T01:05:56.971Z,22.4
2017-11-08T01:07:57.092Z,22.4
2017-11-08T01:09:57.382Z,21.9
2017-11-08T01:11:57.332Z,22.4
2017-11-08T01:13:57.499Z,22.9
2017-11-08T01:15:57.848Z,21.9
2017-11-08T01:17:57.904Z,21.9
2017-11-08T01:19:58.089Z,22.4
2017-11-08T01:21:58.218Z,21.9
2017-11-08T01:23:58.323Z,21.9
2017-11-08T01:25:58.447Z,22.4
2017-11-08T01:27:58.576Z,22.4
2017-11-08T01:29:58.737Z,22.4
2017-11-08T01:31:58.919Z,21.9
2017-11-08T01:33:58.959Z,21.9
2017-11-08T01:35:59.119Z,22.4
2017-11-08T01:37:59.247Z,22.4
2017-11-08T01:39:59.484Z,21.9
2017-11-08T01:41:59.564Z,22.4
2017-11-08T01:43:59.824Z,21.9
2017-11-08T01:45:59.834Z,22.4
2017-11-08T01:47:59.967Z,21.9
2017-11-08T01:50:00.154Z,21.9
2017-11-08T01:52:00.248Z,21.9
2017-11-08T01:54:00.391Z,21.9
2017-11-08T01:56:00.667Z,21.9
2017-11-08T01:58:00.732Z,21.9
2017-11-08T02:00:00.910Z,21.9
2017-11-08T02:02:01.219Z,22.4
2017-11-08T02:04:01.284Z,22.4
2017-11-08T02:06:01.880Z,21.9
2017-11-08T02:08:02.393Z,21.9
2017-11-08T02:10:02.498Z,21.9
2017-11-08T02:12:02.652Z,21.9
2017-11-08T02:14:02.990Z,22.4
2017-11-08T02:16:03.014Z,21.9
2017-11-08T02:18:03.179Z,21.9
2017-11-08T02:20:03.548Z,21.299999999999997
2017-11-08T02:22:03.412Z,21.9
2017-11-08T02:24:03.567Z,22.4
2017-11-08T02:26:03.766Z,21.9
2017-11-08T02:28:03.833Z,21.9
2017-11-08T02:30:03.979Z,21.9
2017-11-08T02:32:04.388Z,21.9
2017-11-08T02:34:04.556Z,21.9
2017-11-08T02:36:04.685Z,22.4
2017-11-08T02:38:04.885Z,22.4
2017-11-08T02:40:05.000Z,21.9
2017-11-08T02:42:05.150Z,21.9
2017-11-08T02:44:05.313Z,22.4
2017-11-08T02:46:05.414Z,22.9
2017-11-08T02:48:05.550Z,22.4
2017-11-08T02:50:05.755Z,22.9
2017-11-08T02:52:05.840Z,21.9
2017-11-08T02:54:06.032Z,22.4
2017-11-08T02:56:06.245Z,22.9
2017-11-08T02:58:06.584Z,22.4
2017-11-08T03:00:06.546Z,22.9
2017-11-08T03:02:06.749Z,22.4
2017-11-08T03:04:06.866Z,22.4
2017-11-08T03:06:07.098Z,22.4
2017-11-08T03:08:07.314Z,22.4
2017-11-08T03:10:07.515Z,22.9
2017-11-08T03:12:07.658Z,22.9
2017-11-08T03:14:12.760Z,22.9
2017-11-08T03:16:07.905Z,22.4
2017-11-08T03:18:08.101Z,22.9
2017-11-08T03:20:08.185Z,22.9
2017-11-08T03:22:08.294Z,22.4
2017-11-08T03:24:08.455Z,22.4
2017-11-08T03:26:08.546Z,22.4
2017-11-08T03:28:08.636Z,22.4
2017-11-08T03:30:08.797Z,22.9
2017-11-08T03:32:08.918Z,22.4
2017-11-08T03:34:09.091Z,21.9
2017-11-08T03:36:09.148Z,22.4
2017-11-08T03:38:09.271Z,22.4
2017-11-08T03:40:09.409Z,21.9
2017-11-08T03:42:09.544Z,22.4
2017-11-08T03:44:09.649Z,21.9
2017-11-08T03:46:09.786Z,21.9
2017-11-08T03:48:09.894Z,21.9
2017-11-08T03:50:10.078Z,22.4
2017-11-08T03:52:10.152Z,21.9
2017-11-08T03:54:10.301Z,21.9
2017-11-08T03:56:10.452Z,22.9
2017-11-08T03:58:10.497Z,21.9
2017-11-08T04:00:10.647Z,21.9
2017-11-08T04:02:10.802Z,22.4
2017-11-08T04:04:10.918Z,21.9
2017-11-08T04:06:11.059Z,21.9
2017-11-08T04:08:11.263Z,22.9
2017-11-08T04:10:11.420Z,22.9
2017-11-08T04:12:11.533Z,21.9
2017-11-08T04:14:11.845Z,21.9
2017-11-08T04:16:11.893Z,21.9
2017-11-08T04:18:12.006Z,21.9
2017-11-08T04:20:12.133Z,21.9
2017-11-08T04:22:12.317Z,22.4
2017-11-08T04:24:12.410Z,21.9
2017-11-08T04:26:12.530Z,21.9
2017-11-08T04:28:12.659Z,21.9
2017-11-08T04:30:12.826Z,22.4
2017-11-08T04:32:12.896Z,22.4
2017-11-08T04:34:13.035Z,21.9
2017-11-08T04:36:13.222Z,21.9
2017-11-08T04:38:13.297Z,21.9
2017-11-08T04:40:13.591Z,22.4
2017-11-08T04:42:13.650Z,21.9
2017-11-08T04:44:13.770Z,22.4
2017-11-08T04:46:14.087Z,21.9
2017-11-08T04:48:14.202Z,21.9
2017-11-08T04:50:14.249Z,22.4
2017-11-08T04:52:14.398Z,21.9
2017-11-08T04:54:14.573Z,21.9
2017-11-08T04:56:14.915Z,22.4
2017-11-08T04:58:15.064Z,22.4
2017-11-08T05:00:15.335Z,21.9
2017-11-08T05:02:15.438Z,21.9
2017-11-08T05:04:15.543Z,21.9
2017-11-08T05:06:15.911Z,21.9
2017-11-08T05:08:15.886Z,21.9
2017-11-08T05:10:16.166Z,21.9
2017-11-08T05:12:16.051Z,21.9
2017-11-08T05:14:16.213Z,21.9
2017-11-08T05:16:16.487Z,21.9
2017-11-08T05:18:16.469Z,22.4
2017-11-08T05:20:16.661Z,21.9
2017-11-08T05:22:16.731Z,22.4
2017-11-08T05:24:16.846Z,21.9
2017-11-08T05:26:17.011Z,21.9
2017-11-08T05:28:17.109Z,21.9
2017-11-08T05:30:17.259Z,21.9
2017-11-08T05:32:17.362Z,21.299999999999997
2017-11-08T05:34:17.463Z,22.4
2017-11-08T05:36:17.632Z,21.9
2017-11-08T05:38:17.746Z,21.9
2017-11-08T05:40:17.890Z,21.9
2017-11-08T05:42:17.959Z,21.9
2017-11-08T05:44:18.121Z,22.4
2017-11-08T05:46:20.700Z,21.9
2017-11-08T05:48:18.414Z,21.9
2017-11-08T05:50:18.648Z,21.9
2017-11-08T05:52:18.982Z,21.9
2017-11-08T05:54:19.194Z,22.9
2017-11-08T05:56:19.295Z,21.9
2017-11-08T05:58:19.586Z,21.299999999999997
2017-11-08T06:00:19.678Z,21.9
2017-11-08T06:02:19.783Z,21.9
2017-11-08T06:04:19.918Z,22.4
2017-11-08T06:06:20.005Z,21.9
2017-11-08T06:08:20.132Z,21.9
2017-11-08T06:10:21.113Z,22.4
2017-11-08T06:12:20.381Z,21.9
2017-11-08T06:14:20.505Z,22.4
2017-11-08T06:16:20.662Z,22.9
2017-11-08T06:18:20.823Z,22.4
2017-11-08T06:20:20.922Z,22.4
2017-11-08T06:22:21.096Z,22.9
2017-11-08T06:24:21.175Z,22.9
2017-11-08T06:26:21.395Z,22.9
2017-11-08T06:28:21.627Z,22.4
2017-11-08T06:30:21.879Z,21.9
2017-11-08T06:32:21.894Z,22.4
2017-11-08T06:34:22.042Z,22.4
2017-11-08T06:36:22.161Z,22.9
2017-11-08T06:38:22.274Z,22.9
2017-11-08T06:40:22.416Z,22.4
2017-11-08T06:42:22.518Z,22.4
2017-11-08T06:44:22.716Z,21.9
2017-11-08T06:46:22.765Z,22.4
2017-11-08T06:48:22.940Z,22.9
2017-11-08T06:50:23.125Z,21.9
2017-11-08T06:52:23.241Z,22.9
2017-11-08T06:54:23.342Z,22.9
2017-11-08T06:56:23.572Z,22.9
2017-11-08T06:58:23.626Z,22.9
2017-11-08T07:00:23.810Z,21.9
2017-11-08T07:02:23.918Z,21.9
2017-11-08T07:04:24.038Z,21.299999999999997
2017-11-08T07:06:24.246Z,21.9
2017-11-08T07:08:24.355Z,21.9
2017-11-08T07:10:24.482Z,21.9
2017-11-08T07:12:24.597Z,21.9
2017-11-08T07:14:24.743Z,21.9
2017-11-08T07:16:24.933Z,21.9
2017-11-08T07:18:25.050Z,22.9
2017-11-08T07:20:25.134Z,21.9
2017-11-08T07:22:25.322Z,21.9
2017-11-08T07:24:25.516Z,22.9
2017-11-08T07:26:25.673Z,21.9
2017-11-08T07:28:25.824Z,22.4
2017-11-08T07:30:25.948Z,22.9
2017-11-08T07:32:26.174Z,22.9
2017-11-08T07:34:26.336Z,22.4
2017-11-08T07:36:26.486Z,21.9
2017-11-08T07:38:26.572Z,21.9
2017-11-08T07:40:26.749Z,21.9
2017-11-08T07:42:26.919Z,21.9
2017-11-08T07:44:26.975Z,22.4
2017-11-08T07:46:27.244Z,21.9
2017-11-08T07:48:27.348Z,21.9
2017-11-08T07:50:27.452Z,21.9
2017-11-08T07:52:27.610Z,21.9
2017-11-08T07:54:27.770Z,21.9
2017-11-08T07:56:27.869Z,21.299999999999997
2017-11-08T07:58:28.061Z,21.299999999999997
2017-11-08T08:00:28.166Z,21.9
2017-11-08T08:02:28.239Z,21.9
2017-11-08T08:04:28.385Z,22.4
2017-11-08T08:06:28.542Z,21.9
2017-11-08T08:08:28.633Z,21.9
2017-11-08T08:10:28.735Z,21.9
2017-11-08T08:12:28.861Z,21.9
2017-11-08T08:14:28.981Z,21.299999999999997
2017-11-08T08:16:29.094Z,21.9
2017-11-08T08:18:29.428Z,21.9
2017-11-08T08:20:29.368Z,21.9
2017-11-08T08:22:29.596Z,21.9
2017-11-08T08:24:29.741Z,21.9
2017-11-08T08:26:29.970Z,22.4
2017-11-08T08:28:30.070Z,22.4
2017-11-08T08:30:30.132Z,21.9
2017-11-08T08:32:30.287Z,21.9
2017-11-08T08:34:30.387Z,21.299999999999997
2017-11-08T08:36:30.495Z,21.9
2017-11-08T08:38:30.685Z,21.9
2017-11-08T08:40:30.774Z,21.299999999999997
2017-11-08T08:42:30.891Z,21.9
2017-11-08T08:44:30.989Z,21.9
2017-11-08T08:46:31.116Z,21.9
2017-11-08T08:48:31.260Z,21.9
2017-11-08T08:50:31.381Z,21.299999999999997
2017-11-08T08:52:31.564Z,21.9
2017-11-08T08:54:31.697Z,21.9
2017-11-08T08:56:31.769Z,21.9
2017-11-08T08:58:31.903Z,21.9
2017-11-08T09:00:32.073Z,21.9
2017-11-08T09:02:32.156Z,21.9
2017-11-08T09:04:32.293Z,21.9
2017-11-08T09:06:32.424Z,21.9
2017-11-08T09:08:32.532Z,21.9
2017-11-08T09:10:32.665Z,21.299999999999997
2017-11-08T09:12:33.112Z,21.9
2017-11-08T09:14:32.950Z,22.4
2017-11-08T09:16:33.085Z,21.9
2017-11-08T09:18:33.271Z,22.9
2017-11-08T09:20:33.319Z,22.4
2017-11-08T09:22:33.490Z,21.9
2017-11-08T09:24:33.625Z,22.4
2017-11-08T09:26:33.730Z,22.4
2017-11-08T09:28:33.907Z,22.9
2017-11-08T09:30:34.129Z,22.9
2017-11-08T09:32:34.247Z,22.9
2017-11-08T09:34:34.354Z,22.4
2017-11-08T09:36:34.530Z,21.9
2017-11-08T09:38:34.622Z,21.9
2017-11-08T09:40:34.761Z,22.9
2017-11-08T09:42:34.929Z,22.4
2017-11-08T09:44:35.017Z,21.9
2017-11-08T09:46:35.239Z,22.4
2017-11-08T09:48:35.290Z,22.4
2017-11-08T09:50:35.410Z,22.9
2017-11-08T09:52:35.560Z,22.4
2017-11-08T09:54:35.803Z,22.4
2017-11-08T09:56:35.749Z,22.9
2017-11-08T09:58:35.870Z,22.9
2017-11-08T10:00:36.021Z,22.4
2017-11-08T10:02:36.133Z,22.9
2017-11-08T10:04:36.429Z,22.9
2017-11-08T10:06:36.461Z,22.4
2017-11-08T10:08:36.583Z,21.9
2017-11-08T10:10:36.669Z,22.9
2017-11-08T10:12:36.889Z,22.9
2017-11-08T10:14:36.929Z,22.9
2017-11-08T10:16:37.066Z,22.9
2017-11-08T10:18:37.187Z,22.9
2017-11-08T10:20:37.309Z,22.9
2017-11-08T10:22:37.464Z,22.9
2017-11-08T10:24:37.638Z,22.9
2017-11-08T10:26:37.687Z,21.9
2017-11-08T10:28:37.834Z,22.4
2017-11-08T10:30:37.940Z,22.9
2017-11-08T10:32:38.115Z,22.9
2017-11-08T10:34:38.244Z,22.9
2017-11-08T10:36:38.474Z,22.9
2017-11-08T10:38:38.417Z,22.9
2017-11-08T10:40:38.641Z,22.4
2017-11-08T10:42:38.934Z,22.9
2017-11-08T10:44:38.989Z,22.4
2017-11-08T10:46:39.129Z,22.9
2017-11-08T10:48:39.295Z,22.4
2017-11-08T10:50:39.489Z,22.9
2017-11-08T10:52:39.669Z,22.9
2017-11-08T10:54:39.827Z,23.5
2017-11-08T10:56:39.932Z,22.9
2017-11-08T10:58:40.007Z,22.9
2017-11-08T11:00:40.166Z,22.9
2017-11-08T11:02:40.278Z,22.4
2017-11-08T11:04:40.425Z,22.9
2017-11-08T11:06:40.576Z,22.9
2017-11-08T11:08:40.694Z,22.4
2017-11-08T11:10:40.899Z,22.4
2017-11-08T11:12:40.961Z,22.9
2017-11-08T11:14:41.130Z,22.4
2017-11-08T11:16:41.368Z,22.9
2017-11-08T11:18:41.562Z,22.9
2017-11-08T11:20:41.691Z,22.9
2017-11-08T11:22:41.920Z,22.9
2017-11-08T11:24:42.087Z,22.9
2017-11-08T11:26:42.278Z,22.9
2017-11-08T11:28:42.359Z,22.9
2017-11-08T11:30:42.538Z,22.9
2017-11-08T11:32:42.639Z,21.9
2017-11-08T11:34:42.785Z,22.4
2017-11-08T11:36:42.897Z,22.9
2017-11-08T11:38:43.101Z,22.4
2017-11-08T11:40:43.273Z,22.9
2017-11-08T11:42:43.483Z,22.9
2017-11-08T11:44:43.480Z,22.4
2017-11-08T11:46:43.694Z,22.9
2017-11-08T11:48:43.849Z,22.9
2017-11-08T11:50:43.865Z,23.5
2017-11-08T11:52:44.044Z,22.9
2017-11-08T11:54:44.318Z,22.9
2017-11-08T11:56:44.314Z,22.9
2017-11-08T11:58:44.470Z,22.9
2017-11-08T12:00:44.605Z,22.9
2017-11-08T12:02:44.741Z,22.9
2017-11-08T12:04:45.073Z,22.9
2017-11-08T12:06:45.175Z,23.5
2017-11-08T12:08:45.116Z,22.4
2017-11-08T12:10:45.359Z,22.9
2017-11-08T12:12:45.445Z,22.4
2017-11-08T12:14:45.601Z,21.9
2017-11-08T12:16:45.736Z,22.9
2017-11-08T12:18:46.057Z,22.9
2017-11-08T12:20:46.227Z,22.9
2017-11-08T12:22:46.360Z,22.9
2017-11-08T12:24:46.539Z,22.9
2017-11-08T12:26:46.605Z,22.9
2017-11-08T12:28:46.723Z,22.4
2017-11-08T12:30:46.869Z,22.9
2017-11-08T12:32:47.048Z,22.9
2017-11-08T12:34:47.204Z,22.9
2017-11-08T12:36:47.372Z,22.9
2017-11-08T12:38:47.471Z,22.9
2017-11-08T12:40:47.787Z,22.9
2017-11-08T12:42:47.822Z,22.9
2017-11-08T12:44:48.105Z,22.4
2017-11-08T12:46:48.104Z,22.4
2017-11-08T12:48:48.236Z,22.9
2017-11-08T12:50:48.369Z,22.9
2017-11-08T12:52:48.497Z,22.9
2017-11-08T12:54:48.649Z,22.9
2017-11-08T12:56:48.779Z,22.9
2017-11-08T12:58:48.877Z,22.9
2017-11-08T13:00:49.062Z,22.9
2017-11-08T13:02:49.127Z,23.5
2017-11-08T13:04:49.576Z,22.9
2017-11-08T13:06:49.388Z,22.9
2017-11-08T13:08:49.512Z,22.9
2017-11-08T13:10:49.703Z,22.9
2017-11-08T13:12:49.768Z,22.9
2017-11-08T13:14:49.908Z,23.5
2017-11-08T13:16:50.033Z,23.5
2017-11-08T13:18:50.397Z,23.5
2017-11-08T13:20:50.312Z,23.5
2017-11-08T13:22:50.546Z,23.5
2017-11-08T13:24:50.601Z,23.5
2017-11-08T13:26:50.722Z,24
2017-11-08T13:28:50.852Z,23.5
2017-11-08T13:30:50.966Z,23.5
2017-11-08T13:32:51.150Z,23.5
2017-11-08T13:34:51.374Z,23.5
2017-11-08T13:36:51.387Z,23.5
2017-11-08T13:38:51.438Z,23.5
2017-11-08T13:40:51.574Z,24
2017-11-08T13:42:51.730Z,22.9
2017-11-08T13:44:51.875Z,23.5
2017-11-08T13:46:51.976Z,23.5
2017-11-08T13:48:52.126Z,23.5
2017-11-08T13:50:52.253Z,23.5
2017-11-08T13:52:52.368Z,22.9
2017-11-08T13:54:52.668Z,23.5
2017-11-08T13:56:53.047Z,23.5
2017-11-08T13:58:52.896Z,23.5
2017-11-08T14:00:52.982Z,22.9
2017-11-08T14:02:53.092Z,22.9
2017-11-08T14:04:53.193Z,22.9
2017-11-08T14:06:53.341Z,22.9
2017-11-08T14:08:53.470Z,23.5
2017-11-08T14:10:53.670Z,22.9
2017-11-08T14:12:53.838Z,23.5
2017-11-08T14:14:53.945Z,23.5
2017-11-08T14:16:54.066Z,22.9
2017-11-08T14:18:54.177Z,23.5
2017-11-08T14:20:54.375Z,23.5
2017-11-08T14:22:54.549Z,23.5
2017-11-08T14:24:54.594Z,23.5
2017-11-08T14:26:54.940Z,21.9
2017-11-08T14:28:54.901Z,22.9
2017-11-08T14:30:54.966Z,23.5
2017-11-08T14:32:55.060Z,23.5
2017-11-08T14:34:55.203Z,22.9
2017-11-08T14:36:55.347Z,22.9
2017-11-08T14:38:55.541Z,22.9
2017-11-08T14:40:55.558Z,22.9
2017-11-08T14:42:55.735Z,22.9
2017-11-08T14:44:55.960Z,22.9
2017-11-08T14:46:56.094Z,22.9
2017-11-08T14:48:56.210Z,22.9
2017-11-08T14:50:56.335Z,22.9
2017-11-08T14:52:56.422Z,22.9
2017-11-08T14:54:56.568Z,22.9
2017-11-08T14:56:56.720Z,22.9
2017-11-08T14:58:56.845Z,22.9
2017-11-08T15:00:57.156Z,22.9
2017-11-08T15:02:57.173Z,23.5
2017-11-08T15:04:57.360Z,22.9
2017-11-08T15:06:57.593Z,22.9
2017-11-08T15:08:57.537Z,22.9
2017-11-08T15:10:57.714Z,22.9
2017-11-08T15:12:57.762Z,22.9
2017-11-08T15:14:57.934Z,22.9
2017-11-08T15:16:58.167Z,22.9
2017-11-08T15:18:58.249Z,22.9
2017-11-08T15:20:58.397Z,22.4
2017-11-08T15:22:58.487Z,22.4
2017-11-08T15:24:58.648Z,21.9
2017-11-08T15:26:58.701Z,22.9
2017-11-08T15:28:58.842Z,22.4
2017-11-08T15:30:58.986Z,21.9
2017-11-08T15:32:59.143Z,22.9
2017-11-08T15:34:59.266Z,22.4
2017-11-08T15:36:59.345Z,21.9
2017-11-08T15:38:59.506Z,21.9
2017-11-08T15:40:59.703Z,22.4
2017-11-08T15:42:59.821Z,21.9
2017-11-08T15:44:59.899Z,21.9
2017-11-08T15:47:00.057Z,21.9
2017-11-08T15:49:00.186Z,21.299999999999997
2017-11-08T15:51:00.311Z,21.9
2017-11-08T15:53:00.470Z,21.9
2017-11-08T15:55:00.712Z,21.299999999999997
2017-11-08T15:57:00.763Z,21.299999999999997
2017-11-08T15:59:00.939Z,21.9
2017-11-08T16:01:01.165Z,21.299999999999997
2017-11-08T16:03:01.193Z,20.799999999999997
2017-11-08T16:05:01.351Z,20.799999999999997
2017-11-08T16:07:01.477Z,21.299999999999997
2017-11-08T16:09:01.586Z,21.9
2017-11-08T16:11:01.985Z,20.799999999999997
2017-11-08T16:13:02.138Z,21.9
2017-11-08T16:15:02.462Z,21.299999999999997
2017-11-08T16:17:02.843Z,21.9
2017-11-08T16:19:02.878Z,21.9
2017-11-08T16:21:03.076Z,21.9
2017-11-08T16:23:03.240Z,21.9
2017-11-08T16:25:03.353Z,21.299999999999997
2017-11-08T16:27:03.453Z,20.799999999999997
2017-11-08T16:29:03.579Z,21.299999999999997
2017-11-08T16:31:03.767Z,21.299999999999997
2017-11-08T16:33:03.902Z,21.9
2017-11-08T16:35:04.041Z,22.4
2017-11-08T16:37:04.179Z,22.4
2017-11-08T16:39:04.360Z,21.9
2017-11-08T16:41:04.507Z,21.9
2017-11-08T16:43:04.684Z,21.299999999999997
2017-11-08T16:45:04.760Z,21.299999999999997
2017-11-08T16:47:04.876Z,21.299999999999997
2017-11-08T16:49:04.998Z,20.799999999999997
2017-11-08T16:51:05.119Z,20.799999999999997
2017-11-08T16:53:05.336Z,21.299999999999997
2017-11-08T16:55:05.417Z,19.700000000000003
2017-11-08T16:57:05.539Z,20.799999999999997
2017-11-08T16:59:05.778Z,20.200000000000003
2017-11-08T17:01:05.815Z,20.200000000000003
2017-11-08T17:03:05.989Z,20.200000000000003
2017-11-08T17:05:06.146Z,20.799999999999997
2017-11-08T17:07:06.310Z,20.200000000000003
2017-11-08T17:09:06.479Z,19.700000000000003
2017-11-08T17:11:06.566Z,19.700000000000003
2017-11-08T17:13:06.732Z,19.700000000000003
2017-11-08T17:15:06.935Z,20.200000000000003
2017-11-08T17:17:07.219Z,19.700000000000003
2017-11-08T17:19:07.075Z,20.799999999999997
2017-11-08T17:21:07.228Z,20.799999999999997
2017-11-08T17:23:07.378Z,20.799999999999997
2017-11-08T17:25:07.486Z,21.9
2017-11-08T17:27:07.586Z,21.299999999999997
2017-11-08T17:29:07.724Z,21.9
2017-11-08T17:31:07.846Z,20.799999999999997
2017-11-08T17:33:08.023Z,21.9
2017-11-08T17:35:08.142Z,21.9
2017-11-08T17:37:08.329Z,21.9
2017-11-08T17:39:08.445Z,21.9
2017-11-08T17:41:08.553Z,21.9
2017-11-08T17:43:08.818Z,21.9
2017-11-08T17:45:08.800Z,21.299999999999997
2017-11-08T17:47:08.898Z,20.799999999999997
2017-11-08T17:49:09.065Z,20.799999999999997
2017-11-08T17:51:09.199Z,20.799999999999997
2017-11-08T17:53:09.295Z,20.799999999999997
2017-11-08T17:55:09.445Z,20.799999999999997
2017-11-08T17:57:09.585Z,19.700000000000003
2017-11-08T17:59:09.695Z,19.700000000000003
2017-11-08T18:01:09.823Z,19.700000000000003
2017-11-08T18:03:09.952Z,19.700000000000003
2017-11-08T18:05:10.099Z,20.799999999999997
2017-11-08T18:07:10.289Z,20.799999999999997
2017-11-08T18:09:10.579Z,20.799999999999997
2017-11-08T18:11:10.615Z,21.299999999999997
2017-11-08T18:13:10.766Z,21.9
2017-11-08T18:15:10.909Z,20.799999999999997
2017-11-08T18:17:10.972Z,21.9
2017-11-08T18:19:11.117Z,21.9
2017-11-08T18:21:11.246Z,21.299999999999997
2017-11-08T18:23:11.462Z,21.299999999999997
2017-11-08T18:25:11.559Z,20.799999999999997
2017-11-08T18:27:11.648Z,21.299999999999997
2017-11-08T18:29:11.811Z,21.9
2017-11-08T18:31:11.887Z,21.9
2017-11-08T18:33:12.096Z,21.9
2017-11-08T18:35:12.181Z,22.4
2017-11-08T18:37:12.330Z,22.4
2017-11-08T18:39:12.453Z,22.9
2017-11-08T18:41:12.714Z,21.9
2017-11-08T18:43:12.857Z,21.9
2017-11-08T18:45:12.967Z,21.9
2017-11-08T18:47:13.088Z,21.9
2017-11-08T18:49:13.230Z,21.9
2017-11-08T18:51:13.363Z,21.9
2017-11-08T18:53:13.510Z,21.9
2017-11-08T18:55:13.609Z,22.4
2017-11-08T18:57:13.766Z,22.4
2017-11-08T18:59:13.949Z,22.4
2017-11-08T19:01:14.165Z,21.9
2017-11-08T19:03:14.245Z,22.4
2017-11-08T19:05:14.395Z,22.4
2017-11-08T19:07:14.613Z,22.4
2017-11-08T19:09:14.790Z,22.9
2017-11-08T19:11:14.884Z,21.9
2017-11-08T19:13:14.982Z,22.9
2017-11-08T19:15:15.242Z,22.9
2017-11-08T19:17:15.256Z,21.9
2017-11-08T19:19:15.421Z,22.9
2017-11-08T19:21:15.604Z,21.9
2017-11-08T19:23:15.727Z,22.4
2017-11-08T19:25:15.865Z,21.9
2017-11-08T19:27:15.967Z,22.4
2017-11-08T19:29:16.190Z,22.9
2017-11-08T19:31:16.272Z,21.9
2017-11-08T19:33:16.423Z,21.9
2017-11-08T19:35:16.944Z,21.9
2017-11-08T19:37:16.761Z,21.9
2017-11-08T19:39:16.878Z,21.9
2017-11-08T19:41:17.063Z,22.9
2017-11-08T19:43:17.221Z,21.9
2017-11-08T19:45:17.347Z,22.4
2017-11-08T19:47:17.422Z,22.4
2017-11-08T19:49:17.539Z,22.4
2017-11-08T19:51:17.685Z,22.4
2017-11-08T19:53:17.790Z,22.9
2017-11-08T19:55:17.932Z,21.9
2017-11-08T19:57:18.042Z,21.9
2017-11-08T19:59:18.214Z,22.9
2017-11-08T20:01:18.311Z,22.4
2017-11-08T20:03:18.451Z,22.9
2017-11-08T20:05:18.663Z,22.4
2017-11-08T20:07:18.887Z,22.4
2017-11-08T20:09:18.840Z,21.9
2017-11-08T20:11:19.046Z,21.9
2017-11-08T20:13:19.186Z,21.9
2017-11-08T20:15:19.382Z,21.9
2017-11-08T20:17:19.489Z,22.4
2017-11-08T20:19:19.649Z,22.4
2017-11-08T20:21:19.799Z,21.9
2017-11-08T20:23:19.880Z,21.9
2017-11-08T20:25:20.037Z,21.9
2017-11-08T20:27:20.141Z,22.4
2017-11-08T20:29:20.334Z,21.9
2017-11-08T20:31:20.436Z,22.4
2017-11-08T20:33:20.561Z,22.4
2017-11-08T20:35:20.844Z,22.4
2017-11-08T20:37:20.968Z,21.9
2017-11-08T20:39:21.118Z,21.9
2017-11-08T20:41:21.176Z,21.9
2017-11-08T20:43:21.361Z,21.9
2017-11-08T20:45:21.442Z,22.4
2017-11-08T20:47:21.633Z,22.4
2017-11-08T20:49:21.715Z,22.9
2017-11-08T20:51:21.843Z,21.9
2017-11-08T20:53:22.070Z,22.9
2017-11-08T20:55:22.135Z,22.9
2017-11-08T20:57:22.494Z,22.4
2017-11-08T20:59:22.385Z,22.4
2017-11-08T21:01:22.690Z,22.9
2017-11-08T21:03:22.928Z,22.4
2017-11-08T21:05:23.032Z,22.4
2017-11-08T21:07:23.134Z,22.4
2017-11-08T21:09:23.336Z,22.9
2017-11-08T21:11:23.524Z,21.9
2017-11-08T21:13:23.573Z,22.4
2017-11-08T21:15:23.895Z,21.9
2017-11-08T21:17:23.896Z,21.9
2017-11-08T21:19:24.156Z,22.4
2017-11-08T21:21:24.281Z,21.9
2017-11-08T21:23:24.416Z,21.9
2017-11-08T21:25:24.547Z,21.9
2017-11-08T21:27:24.689Z,22.4
2017-11-08T21:29:24.880Z,22.4
2017-11-08T21:31:25.022Z,21.9
2017-11-08T21:33:25.092Z,21.9
2017-11-08T21:35:26.965Z,22.4
2017-11-08T21:37:26.321Z,22.4
2017-11-08T21:39:25.574Z,21.9
2017-11-08T21:41:25.715Z,22.9
2017-11-08T21:43:25.957Z,21.9
2017-11-08T21:45:25.963Z,21.9
2017-11-08T21:47:26.132Z,22.9
2017-11-08T21:49:26.327Z,21.9
2017-11-08T21:51:26.440Z,21.9
2017-11-08T21:53:26.568Z,21.9
2017-11-08T21:55:26.721Z,21.9
2017-11-08T21:57:26.866Z,21.9
2017-11-08T21:59:27.007Z,22.4
2017-11-08T22:01:27.229Z,21.9
2017-11-08T22:03:27.271Z,22.4
2017-11-08T22:05:27.394Z,22.4
2017-11-08T22:07:27.511Z,21.9
2017-11-08T22:09:27.660Z,21.9
2017-11-08T22:11:27.787Z,21.9
2017-11-08T22:13:27.951Z,22.9
2017-11-08T22:15:28.094Z,21.9
2017-11-08T22:17:28.220Z,22.4
2017-11-08T22:19:28.370Z,22.4
2017-11-08T22:21:28.486Z,22.4
2017-11-08T22:23:28.645Z,21.9
2017-11-08T22:25:28.749Z,21.9
2017-11-08T22:27:28.921Z,22.9
2017-11-08T22:29:29.041Z,22.9
2017-11-08T22:31:29.153Z,21.9
2017-11-08T22:33:29.261Z,22.4
2017-11-08T22:35:29.391Z,21.9
2017-11-08T22:37:29.831Z,21.9
2017-11-08T22:39:29.770Z,22.4
2017-11-08T22:41:29.949Z,21.9
2017-11-08T22:43:30.144Z,21.9
2017-11-08T22:45:30.231Z,21.9
2017-11-08T22:47:30.376Z,22.4
2017-11-08T22:49:30.501Z,21.9
2017-11-08T22:51:30.671Z,21.9
2017-11-08T22:53:30.748Z,22.4
2017-11-08T22:55:30.902Z,21.9
2017-11-08T22:57:31.046Z,22.9
2017-11-08T22:59:31.220Z,22.9
2017-11-08T23:01:31.388Z,22.4
2017-11-08T23:03:31.409Z,22.4
2017-11-08T23:05:31.652Z,21.9
2017-11-08T23:07:31.698Z,22.4
2017-11-08T23:09:31.862Z,22.4
2017-11-08T23:11:31.936Z,22.9
2017-11-08T23:13:32.067Z,22.4
2017-11-08T23:15:32.234Z,22.9
2017-11-08T23:17:32.347Z,21.9
2017-11-08T23:19:32.726Z,22.9
2017-11-08T23:21:32.786Z,21.9
2017-11-08T23:23:32.928Z,21.9
2017-11-08T23:25:33.025Z,21.9
2017-11-08T23:27:33.166Z,22.4
2017-11-08T23:29:33.325Z,22.4
2017-11-08T23:31:33.447Z,21.9
2017-11-08T23:33:33.599Z,21.9
2017-11-08T23:35:33.756Z,21.9
2017-11-08T23:37:33.841Z,21.9
2017-11-08T23:39:33.962Z,22.9
2017-11-08T23:41:34.109Z,22.4
2017-11-08T23:43:34.259Z,21.9
2017-11-08T23:45:34.398Z,21.9
2017-11-08T23:47:34.508Z,21.9
2017-11-08T23:49:34.808Z,21.9
2017-11-08T23:51:34.789Z,21.9
2017-11-08T23:53:34.892Z,21.299999999999997
2017-11-08T23:55:35.038Z,21.9
2017-11-08T23:57:35.172Z,21.9
2017-11-08T23:59:35.293Z,21.9
